createdAt,value
2022-10-10T04:22:32.450Z,0.00
2022-10-10T04:23:32.321Z,0.00
2022-10-10T04:51:38.862Z,0.00
2022-10-10T04:52:47.495Z,0.00
2022-10-10T04:54:43.014Z,0.00
2022-10-10T04:55:42.890Z,0.00
2022-10-10T04:56:42.796Z,0.00
2022-10-10T04:57:42.707Z,0.00
2022-10-10T04:58:42.611Z,0.00
2022-10-10T04:59:42.525Z,0.00
2022-10-10T05:00:42.428Z,0.00
2022-10-10T05:01:42.465Z,0.00
2022-10-10T05:02:42.249Z,0.00
2022-10-10T05:03:42.156Z,0.00
2022-10-10T05:04:42.062Z,0.00
2022-10-10T05:05:41.971Z,0.00
2022-10-10T05:06:41.877Z,0.00
2022-10-10T05:07:41.787Z,0.00
2022-10-10T05:08:41.689Z,0.00
2022-10-10T05:09:41.596Z,4.00
2022-10-10T05:10:41.507Z,0.00
2022-10-10T05:11:41.411Z,0.00
2022-10-10T05:12:41.321Z,4.00
2022-10-10T05:13:41.235Z,0.00
2022-10-10T05:14:44.659Z,4.00
2022-10-10T05:15:41.051Z,4.00
2022-10-10T05:16:40.956Z,8.00
2022-10-10T05:17:40.857Z,8.00
2022-10-10T05:18:40.777Z,8.00
2022-10-10T05:19:40.679Z,8.00
2022-10-10T05:20:40.587Z,12.00
2022-10-10T05:21:40.496Z,16.00
2022-10-10T05:22:40.404Z,16.00
2022-10-10T05:23:40.307Z,20.00
2022-10-10T05:24:40.219Z,24.00
2022-10-10T05:25:40.127Z,28.00
2022-10-10T05:26:43.188Z,32.00
2022-10-10T05:27:39.947Z,36.00
2022-10-10T05:28:39.876Z,40.00
2022-10-10T05:29:39.765Z,48.00
2022-10-10T05:30:39.669Z,56.00
2022-10-10T05:31:39.575Z,64.00
2022-10-10T05:32:39.490Z,72.00
2022-10-10T05:33:39.402Z,80.00
2022-10-10T05:34:39.313Z,92.00
2022-10-10T05:35:39.213Z,104.00
2022-10-10T05:36:39.121Z,116.00
2022-10-10T05:37:39.032Z,124.00
2022-10-10T05:38:38.941Z,140.00
2022-10-10T05:39:38.852Z,152.00
2022-10-10T05:40:38.756Z,168.00
2022-10-10T05:41:38.667Z,184.00
2022-10-10T05:42:38.583Z,200.00
2022-10-10T05:43:38.485Z,216.00
2022-10-10T05:44:38.393Z,236.00
2022-10-10T05:45:38.308Z,252.00
2022-10-10T05:46:38.219Z,268.00
2022-10-10T05:47:38.122Z,284.00
2022-10-10T05:48:38.040Z,300.00
2022-10-10T05:49:37.945Z,316.00
2022-10-10T05:50:37.854Z,328.00
2022-10-10T05:51:37.759Z,344.00
2022-10-10T05:52:37.671Z,360.00
2022-10-10T05:53:37.585Z,380.00
2022-10-10T05:54:37.511Z,400.00
2022-10-10T05:55:37.400Z,416.00
2022-10-10T05:56:37.310Z,432.00
2022-10-10T05:57:37.215Z,444.00
2022-10-10T05:58:37.125Z,456.00
2022-10-10T05:59:37.036Z,472.00
2022-10-10T06:00:36.946Z,488.00
2022-10-10T06:01:36.852Z,500.00
2022-10-10T06:02:36.786Z,516.00
2022-10-10T06:03:36.673Z,528.00
2022-10-10T06:04:36.583Z,540.00
2022-10-10T06:05:36.496Z,548.00
2022-10-10T06:06:36.404Z,556.00
2022-10-10T06:08:02.411Z,568.00
2022-10-10T06:08:36.224Z,580.00
2022-10-10T06:09:36.129Z,592.00
2022-10-10T06:10:36.045Z,604.00
2022-10-10T06:11:35.951Z,620.00
2022-10-10T06:12:35.864Z,628.00
2022-10-10T06:13:35.771Z,644.00
2022-10-10T06:14:35.683Z,652.00
2022-10-10T06:15:35.589Z,664.00
2022-10-10T06:16:35.501Z,676.00
2022-10-10T06:17:35.408Z,684.00
2022-10-10T06:18:35.317Z,700.00
2022-10-10T06:19:35.229Z,708.00
2022-10-10T06:20:35.133Z,720.00
2022-10-10T06:21:35.044Z,732.00
2022-10-10T06:22:34.960Z,740.00
2022-10-10T06:23:34.861Z,752.00
2022-10-10T06:24:34.774Z,764.00
2022-10-10T06:25:42.353Z,776.00
2022-10-10T06:26:34.601Z,784.00
2022-10-10T06:27:34.499Z,796.00
2022-10-10T06:28:34.463Z,804.00
2022-10-10T06:29:34.325Z,812.00
2022-10-10T06:30:34.235Z,820.00
2022-10-10T06:31:34.140Z,828.00
2022-10-10T06:32:34.060Z,836.00
2022-10-10T06:33:33.964Z,844.00
2022-10-10T06:34:33.876Z,856.00
2022-10-10T06:35:33.784Z,868.00
2022-10-10T06:36:33.690Z,876.00
2022-10-10T06:37:33.603Z,892.00
2022-10-10T06:38:33.511Z,904.00
2022-10-10T06:39:33.424Z,928.00
2022-10-10T06:40:33.330Z,1020.00
2022-10-10T06:41:33.242Z,1032.00
2022-10-10T06:42:33.180Z,1132.00
2022-10-10T06:43:33.058Z,1068.00
2022-10-10T06:44:32.971Z,1008.00
2022-10-10T06:45:32.878Z,992.00
2022-10-10T06:46:32.793Z,1008.00
2022-10-10T06:47:32.706Z,1016.00
2022-10-10T06:48:32.619Z,1020.00
2022-10-10T06:49:32.515Z,1028.00
2022-10-10T06:50:32.433Z,1040.00
2022-10-10T06:51:32.336Z,1052.00
2022-10-10T06:52:32.248Z,1060.00
2022-10-10T06:53:32.161Z,1056.00
2022-10-10T06:54:32.072Z,1060.00
2022-10-10T06:55:31.977Z,1068.00
2022-10-10T06:56:31.885Z,1072.00
2022-10-10T06:57:31.805Z,1088.00
2022-10-10T06:58:31.829Z,1076.00
2022-10-10T06:59:31.623Z,1064.00
2022-10-10T07:00:31.532Z,1060.00
2022-10-10T07:01:31.475Z,1056.00
2022-10-10T07:02:31.349Z,1056.00
2022-10-10T07:03:31.259Z,1056.00
2022-10-10T07:04:31.170Z,1060.00
2022-10-10T07:05:31.075Z,1068.00
2022-10-10T07:06:34.689Z,1068.00
2022-10-10T07:07:30.898Z,1072.00
2022-10-10T07:08:30.807Z,1072.00
2022-10-10T07:09:30.715Z,1076.00
2022-10-10T07:10:30.643Z,1084.00
2022-10-10T07:11:30.541Z,1092.00
2022-10-10T07:12:35.142Z,1104.00
2022-10-10T07:13:30.362Z,1112.00
2022-10-10T07:14:30.265Z,1120.00
2022-10-10T07:15:30.178Z,1128.00
2022-10-10T07:16:30.091Z,1136.00
2022-10-10T07:17:30.001Z,1148.00
2022-10-10T07:18:29.902Z,1156.00
2022-10-10T07:19:29.820Z,1164.00
2022-10-10T07:20:29.732Z,1172.00
2022-10-10T07:21:29.648Z,1180.00
2022-10-10T07:22:29.548Z,1188.00
2022-10-10T07:23:29.454Z,1196.00
2022-10-10T07:24:29.372Z,1200.00
2022-10-10T07:25:29.280Z,1200.00
2022-10-10T07:26:29.186Z,1200.00
2022-10-10T07:27:29.097Z,1196.00
2022-10-10T07:28:29.051Z,1196.00
2022-10-10T07:29:28.917Z,1196.00
2022-10-10T07:30:28.832Z,1192.00
2022-10-10T07:31:28.742Z,1200.00
2022-10-10T07:32:28.649Z,1204.00
2022-10-10T07:33:28.562Z,1212.00
2022-10-10T07:34:28.478Z,1220.00
2022-10-10T07:35:28.379Z,1224.00
2022-10-10T07:36:28.296Z,1240.00
2022-10-10T07:37:28.198Z,1268.00
2022-10-10T07:38:28.112Z,1236.00
2022-10-10T07:39:28.022Z,1248.00
2022-10-10T07:40:27.941Z,1244.00
2022-10-10T07:41:27.849Z,1256.00
2022-10-10T07:42:27.758Z,1264.00
2022-10-10T07:43:27.670Z,1272.00
2022-10-10T07:44:30.228Z,1288.00
2022-10-10T07:45:27.491Z,1300.00
2022-10-10T07:46:27.395Z,1316.00
2022-10-10T07:47:27.310Z,1336.00
2022-10-10T07:48:27.219Z,1356.00
2022-10-10T07:49:27.128Z,1368.00
2022-10-10T07:50:27.046Z,1380.00
2022-10-10T07:51:26.952Z,1388.00
2022-10-10T07:52:26.864Z,1404.00
2022-10-10T07:53:26.772Z,1416.00
2022-10-10T07:54:26.687Z,1432.00
2022-10-10T07:55:26.596Z,1460.00
2022-10-10T07:56:26.513Z,1504.00
2022-10-10T07:57:26.411Z,1552.00
2022-10-10T07:58:26.329Z,1620.00
2022-10-10T07:59:26.238Z,1668.00
2022-10-10T08:00:26.142Z,1608.00
2022-10-10T08:01:26.153Z,1872.00
2022-10-10T08:02:26.056Z,1988.00
2022-10-10T08:03:25.883Z,2008.00
2022-10-10T08:04:25.791Z,1972.00
2022-10-10T08:05:25.703Z,1980.00
2022-10-10T08:06:25.610Z,1864.00
2022-10-10T08:07:25.522Z,1568.00
2022-10-10T08:08:25.431Z,1552.00
2022-10-10T08:09:25.345Z,1500.00
2022-10-10T08:10:25.254Z,1496.00
2022-10-10T08:11:25.166Z,1492.00
2022-10-10T08:12:25.080Z,1504.00
2022-10-10T08:13:24.985Z,2080.00
2022-10-10T08:14:24.897Z,1836.00
2022-10-10T08:15:26.086Z,1524.00
2022-10-10T08:16:24.724Z,1504.00
2022-10-10T08:17:24.624Z,1488.00
2022-10-10T08:18:24.637Z,1488.00
2022-10-10T08:19:24.461Z,1480.00
2022-10-10T08:20:24.363Z,1460.00
2022-10-10T08:21:24.272Z,1452.00
2022-10-10T08:22:24.183Z,1448.00
2022-10-10T08:23:24.093Z,1416.00
2022-10-10T08:24:24.016Z,1408.00
2022-10-10T08:25:23.923Z,1404.00
2022-10-10T08:26:23.831Z,1400.00
2022-10-10T08:27:23.740Z,1400.00
2022-10-10T08:28:23.663Z,1392.00
2022-10-10T08:29:23.564Z,1400.00
2022-10-10T08:30:23.472Z,1412.00
2022-10-10T08:31:23.383Z,1432.00
2022-10-10T08:32:23.288Z,1448.00
2022-10-10T08:33:23.199Z,1460.00
2022-10-10T08:34:23.119Z,1492.00
2022-10-10T08:35:23.029Z,1536.00
2022-10-10T08:36:22.939Z,1572.00
2022-10-10T08:37:27.005Z,1652.00
2022-10-10T08:38:22.761Z,1668.00
2022-10-10T08:39:22.672Z,1756.00
2022-10-10T08:40:22.585Z,1940.00
2022-10-10T08:41:22.500Z,1832.00
2022-10-10T08:42:22.407Z,1864.00
2022-10-10T08:43:22.317Z,1724.00
2022-10-10T08:44:22.229Z,1824.00
2022-10-10T08:45:22.134Z,1832.00
2022-10-10T08:46:22.047Z,1884.00
2022-10-10T08:47:21.964Z,1980.00
2022-10-10T08:48:21.874Z,2084.00
2022-10-10T08:49:21.781Z,2128.00
2022-10-10T08:50:21.717Z,2160.00
2022-10-10T08:51:21.610Z,2132.00
2022-10-10T08:52:21.523Z,2124.00
2022-10-10T08:53:21.434Z,2116.00
2022-10-10T08:54:21.343Z,2108.00
2022-10-10T08:55:21.251Z,2120.00
2022-10-10T08:56:21.164Z,2112.00
2022-10-10T08:57:21.081Z,2104.00
2022-10-10T08:58:20.994Z,2108.00
2022-10-10T08:59:20.897Z,2100.00
2022-10-10T09:00:20.878Z,2104.00
2022-10-10T09:01:23.762Z,2100.00
2022-10-10T09:02:23.586Z,2104.00
2022-10-10T09:03:20.549Z,2104.00
2022-10-10T09:04:20.455Z,2104.00
2022-10-10T09:05:20.369Z,2104.00
2022-10-10T09:06:20.286Z,2104.00
2022-10-10T09:07:20.195Z,2104.00
2022-10-10T09:08:23.267Z,2112.00
2022-10-10T09:09:20.022Z,2108.00
2022-10-10T09:10:19.932Z,2108.00
2022-10-10T09:11:19.839Z,2108.00
2022-10-10T09:12:19.753Z,2108.00
2022-10-10T09:13:19.665Z,2104.00
2022-10-10T09:14:19.580Z,2104.00
2022-10-10T09:15:19.494Z,2104.00
2022-10-10T09:16:19.401Z,2100.00
2022-10-10T09:17:19.315Z,2096.00
2022-10-10T09:18:19.237Z,2096.00
2022-10-10T09:19:19.143Z,2080.00
2022-10-10T09:20:19.144Z,2084.00
2022-10-10T09:21:18.965Z,2084.00
2022-10-10T09:22:18.881Z,2080.00
2022-10-10T09:23:18.793Z,2072.00
2022-10-10T09:24:18.700Z,2064.00
2022-10-10T09:25:18.619Z,2068.00
2022-10-10T09:26:18.542Z,2064.00
2022-10-10T09:27:18.443Z,2064.00
2022-10-10T09:28:18.389Z,2060.00
2022-10-10T09:29:18.268Z,2060.00
2022-10-10T09:30:18.282Z,2064.00
2022-10-10T09:31:18.088Z,2072.00
2022-10-10T09:32:18.004Z,2084.00
2022-10-10T09:33:17.921Z,2084.00
2022-10-10T09:34:17.833Z,2088.00
2022-10-10T09:35:17.747Z,2084.00
2022-10-10T09:36:17.662Z,2092.00
2022-10-10T09:37:35.321Z,2092.00
2022-10-10T09:38:17.486Z,2096.00
2022-10-10T09:39:17.394Z,2092.00
2022-10-10T09:40:17.387Z,2100.00
2022-10-10T09:41:17.225Z,2104.00
2022-10-10T09:42:17.135Z,2108.00
2022-10-10T09:43:17.051Z,2104.00
2022-10-10T09:44:16.963Z,2112.00
2022-10-10T09:45:16.879Z,2112.00
2022-10-10T09:46:16.785Z,2120.00
2022-10-10T09:47:16.698Z,2120.00
2022-10-10T09:48:16.612Z,2124.00
2022-10-10T09:49:16.539Z,2132.00
2022-10-10T09:50:16.517Z,2136.00
2022-10-10T09:51:16.359Z,2140.00
2022-10-10T09:52:16.269Z,2152.00
2022-10-10T09:53:16.180Z,2156.00
2022-10-10T09:54:16.092Z,2168.00
2022-10-10T09:55:16.010Z,2180.00
2022-10-10T09:56:15.923Z,2188.00
2022-10-10T09:57:15.836Z,2204.00
2022-10-10T09:58:15.743Z,2212.00
2022-10-10T09:59:15.662Z,2228.00
2022-10-10T10:00:15.637Z,2224.00
2022-10-10T10:01:15.520Z,2220.00
2022-10-10T10:02:15.397Z,2228.00
2022-10-10T10:03:15.311Z,2224.00
2022-10-10T10:04:30.392Z,2228.00
2022-10-10T10:05:15.137Z,2232.00
2022-10-10T10:06:15.059Z,2224.00
2022-10-10T10:07:14.970Z,2228.00
2022-10-10T10:08:14.873Z,2232.00
2022-10-10T10:09:14.791Z,2236.00
2022-10-10T10:10:14.742Z,2240.00
2022-10-10T10:11:14.617Z,2240.00
2022-10-10T10:12:14.537Z,2244.00
2022-10-10T10:13:14.443Z,2248.00
2022-10-10T10:14:14.360Z,2236.00
2022-10-10T10:15:14.272Z,2248.00
2022-10-10T10:16:14.211Z,2252.00
2022-10-10T10:17:14.108Z,2260.00
2022-10-10T10:18:14.012Z,2236.00
2022-10-10T10:19:13.929Z,2156.00
2022-10-10T10:20:13.841Z,2156.00
2022-10-10T10:21:13.752Z,2244.00
2022-10-10T10:22:17.818Z,2240.00
2022-10-10T10:23:13.583Z,2228.00
2022-10-10T10:24:13.495Z,2212.00
2022-10-10T10:25:13.406Z,2240.00
2022-10-10T10:26:13.324Z,2204.00
2022-10-10T10:27:13.237Z,2136.00
2022-10-10T10:28:13.237Z,2232.00
2022-10-10T10:29:13.063Z,2104.00
2022-10-10T10:30:12.979Z,2176.00
2022-10-10T10:31:12.890Z,2264.00
2022-10-10T10:32:12.810Z,2260.00
2022-10-10T10:33:12.715Z,2248.00
2022-10-10T10:34:12.632Z,2212.00
2022-10-10T10:35:12.550Z,2208.00
2022-10-10T10:36:12.463Z,2256.00
2022-10-10T10:37:14.852Z,2252.00
2022-10-10T10:38:12.303Z,2256.00
2022-10-10T10:39:12.209Z,2252.00
2022-10-10T10:40:12.120Z,2252.00
2022-10-10T10:41:12.038Z,2248.00
2022-10-10T10:42:11.952Z,2248.00
2022-10-10T10:43:11.863Z,2252.00
2022-10-10T10:44:11.774Z,2252.00
2022-10-10T10:45:11.685Z,2252.00
2022-10-10T10:46:11.602Z,2256.00
2022-10-10T10:47:11.521Z,2248.00
2022-10-10T10:48:11.433Z,2256.00
2022-10-10T10:49:11.345Z,2252.00
2022-10-10T10:50:11.264Z,2248.00
2022-10-10T10:51:11.181Z,2252.00
2022-10-10T10:52:11.090Z,2248.00
2022-10-10T10:53:11.018Z,2256.00
2022-10-10T10:54:10.923Z,2256.00
2022-10-10T10:55:10.834Z,2256.00
2022-10-10T10:56:10.748Z,2256.00
2022-10-10T10:57:11.226Z,2260.00
2022-10-10T10:58:57.919Z,2260.00
2022-10-10T10:59:34.527Z,2260.00
2022-10-10T11:00:22.559Z,2260.00
2022-10-10T11:01:23.641Z,2256.00
2022-10-10T11:02:10.827Z,2260.00
2022-10-10T11:03:35.026Z,2256.00
2022-10-10T11:05:17.217Z,2268.00
2022-10-10T11:05:18.389Z,2252.00
2022-10-10T11:06:10.001Z,2272.00
2022-10-10T11:07:24.407Z,2264.00
2022-10-10T11:08:09.720Z,2268.00
2022-10-10T11:09:16.910Z,2272.00
2022-10-10T11:10:09.553Z,2264.00
2022-10-10T11:11:09.470Z,2268.00
2022-10-10T11:12:09.391Z,2268.00
2022-10-10T11:13:09.300Z,2260.00
2022-10-10T11:14:09.221Z,2260.00
2022-10-10T11:15:09.127Z,2256.00
2022-10-10T11:16:13.449Z,2132.00
2022-10-10T11:17:08.960Z,2268.00
2022-10-10T11:18:08.878Z,2260.00
2022-10-10T11:19:08.791Z,2264.00
2022-10-10T11:20:08.707Z,2264.00
2022-10-10T11:21:08.622Z,2260.00
2022-10-10T11:22:08.540Z,2260.00
2022-10-10T11:23:09.375Z,2256.00
2022-10-10T11:24:08.368Z,2276.00
2022-10-10T11:25:08.278Z,2276.00
2022-10-10T11:26:08.198Z,2276.00
2022-10-10T11:27:08.113Z,2280.00
2022-10-10T11:28:08.090Z,2280.00
2022-10-10T11:29:07.936Z,2284.00
2022-10-10T11:30:07.860Z,2288.00
2022-10-10T11:31:07.772Z,2300.00
2022-10-10T11:32:07.764Z,2304.00
2022-10-10T11:33:07.596Z,2308.00
2022-10-10T11:34:07.521Z,2324.00
2022-10-10T11:35:07.434Z,2324.00
2022-10-10T11:36:07.348Z,2332.00
2022-10-10T11:37:07.267Z,2328.00
2022-10-10T11:38:07.180Z,2340.00
2022-10-10T11:39:07.591Z,2348.00
2022-10-10T11:40:07.011Z,2364.00
2022-10-10T11:41:06.925Z,2364.00
2022-10-10T11:42:06.845Z,2372.00
2022-10-10T11:43:06.758Z,2376.00
2022-10-10T11:44:06.674Z,2396.00
2022-10-10T11:45:06.597Z,2380.00
2022-10-10T11:46:06.646Z,2380.00
2022-10-10T11:47:06.414Z,2376.00
2022-10-10T11:48:06.332Z,2388.00
2022-10-10T11:49:06.255Z,2420.00
2022-10-10T11:50:06.162Z,2396.00
2022-10-10T11:51:06.087Z,2384.00
2022-10-10T11:52:31.914Z,2380.00
2022-10-10T11:53:05.914Z,2376.00
2022-10-10T11:54:05.827Z,2388.00
2022-10-10T11:55:05.742Z,2360.00
2022-10-10T11:56:05.654Z,2336.00
2022-10-10T11:57:06.729Z,2360.00
2022-10-10T11:58:05.498Z,2348.00
2022-10-10T11:59:05.401Z,2336.00
2022-10-10T12:00:05.321Z,2324.00
2022-10-10T12:01:05.236Z,2300.00
2022-10-10T12:02:05.153Z,2264.00
2022-10-10T12:03:05.081Z,2328.00
2022-10-10T12:04:04.982Z,2328.00
2022-10-10T12:05:04.896Z,2328.00
2022-10-10T12:06:04.818Z,2324.00
2022-10-10T12:07:04.728Z,2332.00
2022-10-10T12:08:04.646Z,2368.00
2022-10-10T12:09:04.563Z,2324.00
2022-10-10T12:10:04.493Z,2332.00
2022-10-10T12:11:04.392Z,2324.00
2022-10-10T12:12:04.306Z,2332.00
2022-10-10T12:13:04.227Z,2348.00
2022-10-10T12:14:04.137Z,2304.00
2022-10-10T12:15:04.053Z,2356.00
2022-10-10T12:16:04.377Z,2372.00
2022-10-10T12:17:03.880Z,2400.00
2022-10-10T12:18:03.803Z,2400.00
2022-10-10T12:19:03.716Z,2396.00
2022-10-10T12:20:03.635Z,2388.00
2022-10-10T12:21:03.550Z,2384.00
2022-10-10T12:22:03.464Z,2392.00
2022-10-10T12:23:03.380Z,2484.00
2022-10-10T12:24:03.292Z,2444.00
2022-10-10T12:25:03.225Z,2472.00
2022-10-10T12:26:03.567Z,2476.00
2022-10-10T12:27:03.045Z,2444.00
2022-10-10T12:28:02.961Z,2448.00
2022-10-10T12:29:02.873Z,2512.00
2022-10-10T12:30:02.791Z,2568.00
2022-10-10T12:31:03.103Z,2664.00
2022-10-10T12:32:02.628Z,2584.00
2022-10-10T12:33:02.541Z,2652.00
2022-10-10T12:34:02.461Z,2664.00
2022-10-10T12:35:02.365Z,2716.00
2022-10-10T12:36:02.733Z,2760.00
2022-10-10T12:37:07.283Z,2744.00
2022-10-10T12:38:02.114Z,2764.00
2022-10-10T12:39:02.038Z,2784.00
2022-10-10T12:40:01.962Z,2828.00
2022-10-10T12:41:02.137Z,2860.00
2022-10-10T12:42:01.782Z,2884.00
2022-10-10T12:43:01.696Z,2892.00
2022-10-10T12:44:01.637Z,2968.00
2022-10-10T12:45:01.534Z,2944.00
2022-10-10T12:46:01.459Z,2952.00
2022-10-10T12:47:05.963Z,3024.00
2022-10-10T12:48:06.016Z,3008.00
2022-10-10T12:49:01.196Z,3024.00
2022-10-10T12:50:01.114Z,3044.00
2022-10-10T12:51:01.344Z,3096.00
2022-10-10T12:52:00.949Z,3092.00
2022-10-10T12:53:00.862Z,3112.00
2022-10-10T12:54:00.780Z,3120.00
2022-10-10T12:55:05.709Z,3180.00
2022-10-10T12:56:00.611Z,3184.00
2022-10-10T12:57:00.532Z,3136.00
2022-10-10T12:58:00.447Z,3256.00
2022-10-10T12:59:00.357Z,3240.00
2022-10-10T13:00:02.222Z,3228.00
2022-10-10T13:01:00.631Z,3224.00
2022-10-10T13:02:00.158Z,3200.00
2022-10-10T13:03:00.031Z,3204.00
2022-10-10T13:03:59.944Z,3200.00
2022-10-10T13:04:59.857Z,3220.00
2022-10-10T13:05:59.777Z,3272.00
2022-10-10T13:06:59.694Z,3244.00
2022-10-10T13:07:59.622Z,3272.00
2022-10-10T13:08:59.530Z,3312.00
2022-10-10T13:09:59.439Z,3288.00
2022-10-10T13:10:59.579Z,3292.00
2022-10-10T13:11:59.270Z,3284.00
2022-10-10T13:12:59.195Z,3248.00
2022-10-10T13:13:59.112Z,3188.00
2022-10-10T13:14:59.027Z,3200.00
2022-10-10T13:15:58.951Z,3252.00
2022-10-10T13:16:58.858Z,3220.00
2022-10-10T13:17:58.776Z,3220.00
2022-10-10T13:18:58.690Z,3220.00
2022-10-10T13:19:58.614Z,3180.00
2022-10-10T13:20:58.538Z,3192.00
2022-10-10T13:21:58.446Z,3196.00
2022-10-10T13:22:58.364Z,3256.00
2022-10-10T13:24:03.343Z,3232.00
2022-10-10T13:24:58.197Z,3192.00
2022-10-10T13:25:58.110Z,3156.00
2022-10-10T13:26:58.031Z,3116.00
2022-10-10T13:27:57.947Z,3144.00
2022-10-10T13:28:57.859Z,3144.00
2022-10-10T13:29:57.780Z,3140.00
2022-10-10T13:30:57.694Z,3148.00
2022-10-10T13:31:57.616Z,3144.00
2022-10-10T13:32:57.529Z,3092.00
2022-10-10T13:33:57.447Z,3024.00
2022-10-10T13:34:57.365Z,2956.00
2022-10-10T13:35:57.284Z,2900.00
2022-10-10T13:36:57.197Z,2860.00
2022-10-10T13:37:57.209Z,2920.00
2022-10-10T13:38:57.030Z,3020.00
2022-10-10T13:39:56.949Z,3096.00
2022-10-10T13:40:56.866Z,3124.00
2022-10-10T13:41:56.781Z,3312.00
2022-10-10T13:42:56.693Z,3272.00
2022-10-10T13:43:56.620Z,3308.00
2022-10-10T13:44:56.528Z,3356.00
2022-10-10T13:45:56.448Z,3364.00
2022-10-10T13:46:56.370Z,3528.00
2022-10-10T13:47:56.281Z,3416.00
2022-10-10T13:48:56.195Z,3312.00
2022-10-10T13:49:56.114Z,3412.00
2022-10-10T13:50:56.035Z,3428.00
2022-10-10T13:51:55.944Z,3452.00
2022-10-10T13:52:55.863Z,3372.00
2022-10-10T13:53:55.806Z,3160.00
2022-10-10T13:54:55.693Z,3336.00
2022-10-10T13:55:55.612Z,3420.00
2022-10-10T13:56:55.526Z,3316.00
2022-10-10T13:58:00.839Z,3292.00
2022-10-10T13:58:55.361Z,3456.00
2022-10-10T13:59:55.280Z,3340.00
2022-10-10T14:00:55.195Z,3656.00
2022-10-10T14:01:55.151Z,3816.00
2022-10-10T14:02:55.027Z,3724.00
2022-10-10T14:03:54.944Z,3800.00
2022-10-10T14:04:54.919Z,3800.00
2022-10-10T14:05:54.774Z,3804.00
2022-10-10T14:06:54.701Z,3664.00
2022-10-10T14:07:54.605Z,3684.00
2022-10-10T14:08:54.530Z,3648.00
2022-10-10T14:09:54.443Z,3316.00
2022-10-10T14:10:54.377Z,3676.00
2022-10-10T14:11:54.278Z,3636.00
2022-10-10T14:12:54.208Z,3536.00
2022-10-10T14:13:54.107Z,3372.00
2022-10-10T14:14:54.035Z,3180.00
2022-10-10T14:15:53.942Z,3072.00
2022-10-10T14:16:53.851Z,2944.00
2022-10-10T14:17:53.771Z,3012.00
2022-10-10T14:18:53.692Z,2708.00
2022-10-10T14:19:53.627Z,2748.00
2022-10-10T14:20:53.583Z,2892.00
2022-10-10T14:21:53.438Z,3016.00
2022-10-10T14:22:53.356Z,3108.00
2022-10-10T14:23:53.268Z,3132.00
2022-10-10T14:24:53.189Z,3240.00
2022-10-10T14:25:53.111Z,3200.00
2022-10-10T14:26:53.017Z,3204.00
2022-10-10T14:27:52.940Z,3536.00
2022-10-10T14:28:52.911Z,3636.00
2022-10-10T14:29:52.773Z,3840.00
2022-10-10T14:30:52.689Z,3696.00
2022-10-10T14:31:52.603Z,3696.00
2022-10-10T14:32:52.518Z,3780.00
2022-10-10T14:33:52.448Z,3548.00
2022-10-10T14:34:52.354Z,3512.00
2022-10-10T14:35:52.270Z,3520.00
2022-10-10T14:36:52.182Z,3560.00
2022-10-10T14:37:52.105Z,3404.00
2022-10-10T14:38:52.019Z,3316.00
2022-10-10T14:39:51.940Z,3240.00
2022-10-10T14:40:51.854Z,3140.00
2022-10-10T14:41:51.770Z,3484.00
2022-10-10T14:42:51.685Z,3732.00
2022-10-10T14:43:51.601Z,3852.00
2022-10-10T14:44:51.518Z,4184.00
2022-10-10T14:45:51.442Z,3984.00
2022-10-10T14:46:51.347Z,3732.00
2022-10-10T14:47:51.270Z,3888.00
2022-10-10T14:48:51.185Z,3940.00
2022-10-10T14:49:51.102Z,3788.00
2022-10-10T14:50:51.011Z,4212.00
2022-10-10T14:51:50.935Z,4424.00
2022-10-10T14:52:50.850Z,4392.00
2022-10-10T14:54:10.747Z,4888.00
2022-10-10T14:54:50.678Z,5848.00
2022-10-10T14:55:55.939Z,7324.00
2022-10-10T14:57:07.196Z,13544.00
2022-10-10T14:57:50.432Z,25664.00
2022-10-10T14:58:50.349Z,26112.00
2022-10-10T14:59:50.470Z,21856.00
2022-10-10T15:00:50.184Z,21408.00
2022-10-10T15:01:50.102Z,15712.00
2022-10-10T15:02:50.098Z,17952.00
2022-10-10T15:03:49.933Z,34080.00
2022-10-10T15:04:49.857Z,36384.00
2022-10-10T15:05:49.768Z,39008.00
2022-10-10T15:07:11.852Z,43296.00
2022-10-10T15:07:49.602Z,42496.00
2022-10-10T15:08:49.518Z,42976.00
2022-10-10T15:10:49.376Z,29248.00
2022-10-10T15:11:49.276Z,25664.00
2022-10-10T15:12:49.187Z,19040.00
2022-10-10T15:13:49.107Z,12148.00
2022-10-10T15:14:49.029Z,6360.00
2022-10-10T15:15:48.943Z,5168.00
2022-10-10T15:16:48.866Z,5472.00
2022-10-10T15:17:48.782Z,8776.00
2022-10-10T15:18:54.030Z,16960.00
2022-10-10T15:19:48.614Z,17280.00
2022-10-10T15:20:48.536Z,14008.00
2022-10-10T15:21:48.451Z,5416.00
2022-10-10T15:22:48.363Z,2420.00
2022-10-10T15:23:48.292Z,2056.00
2022-10-10T15:24:48.212Z,1928.00
2022-10-10T15:25:48.128Z,1848.00
2022-10-10T15:26:48.045Z,1788.00
2022-10-10T15:27:47.957Z,1740.00
2022-10-10T15:28:47.921Z,1696.00
2022-10-10T15:29:47.797Z,1668.00
2022-10-10T15:30:47.710Z,1644.00
2022-10-10T15:31:47.625Z,1672.00
2022-10-10T15:32:47.549Z,2280.00
2022-10-10T15:33:47.462Z,2832.00
2022-10-10T15:34:47.380Z,2336.00
2022-10-10T15:36:08.130Z,2260.00
2022-10-10T15:36:47.214Z,2124.00
2022-10-10T15:37:47.135Z,2044.00
2022-10-10T15:38:47.044Z,2100.00
2022-10-10T15:39:46.968Z,2196.00
2022-10-10T15:40:46.886Z,2096.00
2022-10-10T15:41:46.797Z,2088.00
2022-10-10T15:42:46.713Z,2040.00
2022-10-10T15:43:46.628Z,1996.00
2022-10-10T15:44:46.556Z,1884.00
2022-10-10T15:46:01.872Z,1720.00
2022-10-10T15:46:46.377Z,1572.00
2022-10-10T15:47:46.733Z,1456.00
2022-10-10T15:48:46.212Z,1364.00
2022-10-10T15:49:46.128Z,1272.00
2022-10-10T15:50:46.048Z,1196.00
2022-10-10T15:51:45.953Z,1128.00
2022-10-10T15:52:45.877Z,1064.00
2022-10-10T15:53:45.791Z,1020.00
2022-10-10T15:54:45.709Z,984.00
2022-10-10T15:55:45.623Z,944.00
2022-10-10T15:56:45.543Z,908.00
2022-10-10T15:57:45.458Z,876.00
2022-10-10T15:58:45.368Z,840.00
2022-10-10T15:59:45.286Z,808.00
2022-10-10T16:00:45.269Z,776.00
2022-10-10T16:01:45.118Z,740.00
2022-10-10T16:02:45.035Z,712.00
2022-10-10T16:03:44.959Z,676.00
2022-10-10T16:04:44.865Z,640.00
2022-10-10T16:05:44.783Z,604.00
2022-10-10T16:06:54.215Z,564.00
2022-10-10T16:07:48.304Z,536.00
2022-10-10T16:08:44.534Z,512.00
2022-10-10T16:09:44.444Z,484.00
2022-10-10T16:10:44.365Z,456.00
2022-10-10T16:11:44.285Z,436.00
2022-10-10T16:12:44.192Z,416.00
2022-10-10T16:13:44.107Z,400.00
2022-10-10T16:14:44.022Z,380.00
2022-10-10T16:15:43.946Z,348.00
2022-10-10T16:16:43.861Z,320.00
2022-10-10T16:17:43.775Z,300.00
2022-10-10T16:18:43.692Z,284.00
2022-10-10T16:19:43.607Z,264.00
2022-10-10T16:20:43.522Z,244.00
2022-10-10T16:21:43.432Z,224.00
2022-10-10T16:22:43.349Z,204.00
2022-10-10T16:23:43.263Z,184.00
2022-10-10T16:24:53.951Z,164.00
2022-10-10T16:25:43.093Z,148.00
2022-10-10T16:26:43.012Z,132.00
2022-10-10T16:27:42.926Z,120.00
2022-10-10T16:28:42.899Z,104.00
2022-10-10T16:29:42.754Z,92.00
2022-10-10T16:30:42.671Z,80.00
2022-10-10T16:31:42.590Z,68.00
2022-10-10T16:32:42.917Z,56.00
2022-10-10T16:33:42.418Z,44.00
2022-10-10T16:34:42.334Z,36.00
2022-10-10T16:35:42.247Z,32.00
2022-10-10T16:36:42.171Z,28.00
2022-10-10T16:37:42.087Z,20.00
2022-10-10T16:38:41.995Z,16.00
2022-10-10T16:39:41.906Z,12.00
2022-10-10T16:40:41.825Z,12.00
2022-10-10T16:41:49.484Z,12.00
2022-10-10T16:42:41.663Z,8.00
2022-10-10T16:43:41.567Z,8.00
2022-10-10T16:44:41.481Z,8.00
2022-10-10T16:45:41.398Z,4.00
2022-10-10T16:46:41.318Z,8.00
2022-10-10T16:47:41.235Z,4.00
2022-10-10T16:48:41.148Z,0.00
2022-10-10T16:49:41.103Z,4.00
2022-10-10T16:50:41.032Z,4.00
2022-10-10T16:51:40.911Z,0.00
2022-10-10T16:52:40.804Z,0.00
2022-10-10T16:53:40.725Z,0.00
2022-10-10T16:54:40.635Z,0.00
2022-10-10T16:55:40.557Z,4.00
2022-10-10T16:56:40.470Z,4.00
2022-10-10T16:57:40.381Z,0.00
2022-10-10T16:58:40.301Z,0.00
2022-10-10T16:59:40.212Z,0.00
2022-10-10T17:00:40.226Z,0.00
2022-10-10T17:01:40.134Z,0.00
2022-10-10T17:02:39.954Z,0.00
2022-10-10T17:03:39.873Z,0.00
2022-10-10T17:04:39.782Z,0.00